sensor_id;sensor_type;location;lat;lon;timestamp;temperature;humidity
4647;DHT22;2336;47.822;7.564;2022-07-06T00:02:07;18.40;99.90
4647;DHT22;2336;47.822;7.564;2022-07-06T00:04:34;18.40;99.90
4647;DHT22;2336;47.822;7.564;2022-07-06T00:07:01;18.40;99.90
4647;DHT22;2336;47.822;7.564;2022-07-06T00:09:29;18.30;99.90
4647;DHT22;2336;47.822;7.564;2022-07-06T00:11:56;18.30;99.90
4647;DHT22;2336;47.822;7.564;2022-07-06T00:14:22;18.30;99.90
4647;DHT22;2336;47.822;7.564;2022-07-06T00:16:49;18.30;99.90
4647;DHT22;2336;47.822;7.564;2022-07-06T00:19:16;18.30;99.90
4647;DHT22;2336;47.822;7.564;2022-07-06T00:21:43;18.30;99.90
4647;DHT22;2336;47.822;7.564;2022-07-06T00:24:09;18.30;99.90
4647;DHT22;2336;47.822;7.564;2022-07-06T00:26:37;18.30;99.90
4647;DHT22;2336;47.822;7.564;2022-07-06T00:29:04;18.30;99.90
4647;DHT22;2336;47.822;7.564;2022-07-06T00:31:31;18.30;99.90
4647;DHT22;2336;47.822;7.564;2022-07-06T00:33:57;18.30;99.90
4647;DHT22;2336;47.822;7.564;2022-07-06T00:36:24;18.30;99.90
4647;DHT22;2336;47.822;7.564;2022-07-06T00:38:51;18.30;99.90
4647;DHT22;2336;47.822;7.564;2022-07-06T00:41:17;18.30;99.90
4647;DHT22;2336;47.822;7.564;2022-07-06T00:43:53;18.30;99.90
4647;DHT22;2336;47.822;7.564;2022-07-06T00:46:23;18.20;99.90
4647;DHT22;2336;47.822;7.564;2022-07-06T00:48:51;18.20;99.90
4647;DHT22;2336;47.822;7.564;2022-07-06T00:51:18;18.10;99.90
4647;DHT22;2336;47.822;7.564;2022-07-06T00:53:46;18.10;99.90
4647;DHT22;2336;47.822;7.564;2022-07-06T00:56:14;18.10;99.90
4647;DHT22;2336;47.822;7.564;2022-07-06T00:58:41;18.00;99.90
4647;DHT22;2336;47.822;7.564;2022-07-06T01:01:10;18.00;99.90
4647;DHT22;2336;47.822;7.564;2022-07-06T01:03:36;18.00;99.90
4647;DHT22;2336;47.822;7.564;2022-07-06T01:06:03;17.90;99.90
4647;DHT22;2336;47.822;7.564;2022-07-06T01:08:30;17.90;99.90
4647;DHT22;2336;47.822;7.564;2022-07-06T01:10:57;17.80;99.90
4647;DHT22;2336;47.822;7.564;2022-07-06T01:13:25;17.80;99.90
4647;DHT22;2336;47.822;7.564;2022-07-06T01:15:52;17.80;99.90
4647;DHT22;2336;47.822;7.564;2022-07-06T01:18:20;17.80;99.90
4647;DHT22;2336;47.822;7.564;2022-07-06T01:20:48;17.70;99.90
4647;DHT22;2336;47.822;7.564;2022-07-06T01:23:15;17.70;99.90
4647;DHT22;2336;47.822;7.564;2022-07-06T01:25:42;17.70;99.90
4647;DHT22;2336;47.822;7.564;2022-07-06T01:28:09;17.70;99.90
4647;DHT22;2336;47.822;7.564;2022-07-06T01:30:35;17.70;99.90
4647;DHT22;2336;47.822;7.564;2022-07-06T01:33:02;17.70;99.90
4647;DHT22;2336;47.822;7.564;2022-07-06T01:35:31;17.70;99.90
4647;DHT22;2336;47.822;7.564;2022-07-06T01:38:01;17.60;99.90
4647;DHT22;2336;47.822;7.564;2022-07-06T01:40:27;17.70;99.90
4647;DHT22;2336;47.822;7.564;2022-07-06T01:42:54;17.70;99.90
4647;DHT22;2336;47.822;7.564;2022-07-06T01:45:21;17.70;99.90
4647;DHT22;2336;47.822;7.564;2022-07-06T01:47:47;17.60;99.90
4647;DHT22;2336;47.822;7.564;2022-07-06T01:50:14;17.60;99.90
4647;DHT22;2336;47.822;7.564;2022-07-06T01:52:41;17.60;99.90
4647;DHT22;2336;47.822;7.564;2022-07-06T01:55:09;17.60;99.90
4647;DHT22;2336;47.822;7.564;2022-07-06T01:57:36;17.60;99.90
4647;DHT22;2336;47.822;7.564;2022-07-06T02:00:05;17.60;99.90
4647;DHT22;2336;47.822;7.564;2022-07-06T02:02:32;17.60;99.90
4647;DHT22;2336;47.822;7.564;2022-07-06T02:04:59;17.60;99.90
4647;DHT22;2336;47.822;7.564;2022-07-06T02:07:26;17.50;99.90
4647;DHT22;2336;47.822;7.564;2022-07-06T02:09:52;17.50;99.90
4647;DHT22;2336;47.822;7.564;2022-07-06T02:12:20;17.40;99.90
4647;DHT22;2336;47.822;7.564;2022-07-06T02:14:47;17.40;99.90
4647;DHT22;2336;47.822;7.564;2022-07-06T02:17:14;17.30;99.90
4647;DHT22;2336;47.822;7.564;2022-07-06T02:19:40;17.20;99.90
4647;DHT22;2336;47.822;7.564;2022-07-06T02:22:07;17.20;99.90
4647;DHT22;2336;47.822;7.564;2022-07-06T02:24:34;17.20;99.90
4647;DHT22;2336;47.822;7.564;2022-07-06T02:27:02;17.10;99.90
4647;DHT22;2336;47.822;7.564;2022-07-06T02:29:30;17.20;99.90
4647;DHT22;2336;47.822;7.564;2022-07-06T02:31:56;17.20;99.90
4647;DHT22;2336;47.822;7.564;2022-07-06T02:34:23;17.20;99.90
4647;DHT22;2336;47.822;7.564;2022-07-06T02:36:50;17.20;99.90
4647;DHT22;2336;47.822;7.564;2022-07-06T02:39:16;17.20;99.90
4647;DHT22;2336;47.822;7.564;2022-07-06T02:41:44;17.20;99.90
4647;DHT22;2336;47.822;7.564;2022-07-06T02:44:11;17.10;99.90
4647;DHT22;2336;47.822;7.564;2022-07-06T02:46:39;17.10;99.90
4647;DHT22;2336;47.822;7.564;2022-07-06T02:49:06;17.10;99.90
4647;DHT22;2336;47.822;7.564;2022-07-06T02:51:32;17.00;99.90
4647;DHT22;2336;47.822;7.564;2022-07-06T02:53:59;17.00;99.90
4647;DHT22;2336;47.822;7.564;2022-07-06T02:56:26;16.90;99.90
4647;DHT22;2336;47.822;7.564;2022-07-06T02:58:53;16.90;99.90
4647;DHT22;2336;47.822;7.564;2022-07-06T03:01:20;16.80;99.90
4647;DHT22;2336;47.822;7.564;2022-07-06T03:03:48;16.80;99.90
4647;DHT22;2336;47.822;7.564;2022-07-06T03:06:14;16.70;99.90
4647;DHT22;2336;47.822;7.564;2022-07-06T03:08:41;16.70;99.90
4647;DHT22;2336;47.822;7.564;2022-07-06T03:11:08;16.70;99.90
4647;DHT22;2336;47.822;7.564;2022-07-06T03:13:35;16.60;99.90
4647;DHT22;2336;47.822;7.564;2022-07-06T03:16:02;16.60;99.90
4647;DHT22;2336;47.822;7.564;2022-07-06T03:18:29;16.50;99.90
4647;DHT22;2336;47.822;7.564;2022-07-06T03:20:57;16.50;99.90
4647;DHT22;2336;47.822;7.564;2022-07-06T03:23:24;16.40;99.90
4647;DHT22;2336;47.822;7.564;2022-07-06T03:25:50;16.40;99.90
4647;DHT22;2336;47.822;7.564;2022-07-06T03:28:17;16.40;99.90
4647;DHT22;2336;47.822;7.564;2022-07-06T03:30:44;16.40;99.90
4647;DHT22;2336;47.822;7.564;2022-07-06T03:33:10;16.30;99.90
4647;DHT22;2336;47.822;7.564;2022-07-06T03:35:37;16.30;99.90
4647;DHT22;2336;47.822;7.564;2022-07-06T03:38:05;16.20;99.90
4647;DHT22;2336;47.822;7.564;2022-07-06T03:40:32;16.10;99.90
4647;DHT22;2336;47.822;7.564;2022-07-06T03:42:59;16.10;99.90
4647;DHT22;2336;47.822;7.564;2022-07-06T03:45:26;16.10;99.90
4647;DHT22;2336;47.822;7.564;2022-07-06T03:47:53;16.10;99.90
4647;DHT22;2336;47.822;7.564;2022-07-06T03:50:20;16.10;99.90
4647;DHT22;2336;47.822;7.564;2022-07-06T03:52:46;16.10;99.90
4647;DHT22;2336;47.822;7.564;2022-07-06T03:55:14;16.10;99.90
4647;DHT22;2336;47.822;7.564;2022-07-06T03:57:41;16.10;99.90
4647;DHT22;2336;47.822;7.564;2022-07-06T04:00:09;16.10;99.90
4647;DHT22;2336;47.822;7.564;2022-07-06T04:02:36;16.10;99.90
4647;DHT22;2336;47.822;7.564;2022-07-06T04:05:03;16.00;99.90
4647;DHT22;2336;47.822;7.564;2022-07-06T04:07:30;16.10;99.90
4647;DHT22;2336;47.822;7.564;2022-07-06T04:09:57;16.10;99.90
4647;DHT22;2336;47.822;7.564;2022-07-06T04:12:25;16.10;99.90
4647;DHT22;2336;47.822;7.564;2022-07-06T04:14:52;16.10;99.90
4647;DHT22;2336;47.822;7.564;2022-07-06T04:17:18;16.10;99.90
4647;DHT22;2336;47.822;7.564;2022-07-06T04:20:03;16.20;99.90
4647;DHT22;2336;47.822;7.564;2022-07-06T04:22:30;16.20;99.90
4647;DHT22;2336;47.822;7.564;2022-07-06T04:24:56;16.20;99.90
4647;DHT22;2336;47.822;7.564;2022-07-06T04:27:24;16.20;99.90
4647;DHT22;2336;47.822;7.564;2022-07-06T04:29:52;16.10;99.90
4647;DHT22;2336;47.822;7.564;2022-07-06T04:32:19;16.20;99.90
4647;DHT22;2336;47.822;7.564;2022-07-06T04:34:46;16.30;99.90
4647;DHT22;2336;47.822;7.564;2022-07-06T04:37:13;16.30;99.90
4647;DHT22;2336;47.822;7.564;2022-07-06T04:39:39;16.30;99.90
4647;DHT22;2336;47.822;7.564;2022-07-06T04:42:06;16.30;99.90
4647;DHT22;2336;47.822;7.564;2022-07-06T04:44:34;16.30;99.90
4647;DHT22;2336;47.822;7.564;2022-07-06T04:47:01;16.30;99.90
4647;DHT22;2336;47.822;7.564;2022-07-06T04:49:28;16.30;99.90
4647;DHT22;2336;47.822;7.564;2022-07-06T04:51:54;16.40;99.90
4647;DHT22;2336;47.822;7.564;2022-07-06T04:54:21;16.40;99.90
4647;DHT22;2336;47.822;7.564;2022-07-06T04:56:48;16.40;99.90
4647;DHT22;2336;47.822;7.564;2022-07-06T04:59:15;16.40;99.90
4647;DHT22;2336;47.822;7.564;2022-07-06T05:01:43;16.40;99.90
4647;DHT22;2336;47.822;7.564;2022-07-06T05:04:09;16.50;99.90
4647;DHT22;2336;47.822;7.564;2022-07-06T05:06:36;16.50;99.90
4647;DHT22;2336;47.822;7.564;2022-07-06T05:09:03;16.50;99.90
4647;DHT22;2336;47.822;7.564;2022-07-06T05:11:30;16.50;99.90
4647;DHT22;2336;47.822;7.564;2022-07-06T05:13:56;16.50;99.90
4647;DHT22;2336;47.822;7.564;2022-07-06T05:16:23;16.60;99.90
4647;DHT22;2336;47.822;7.564;2022-07-06T05:18:51;16.60;99.90
4647;DHT22;2336;47.822;7.564;2022-07-06T05:21:18;16.60;99.90
4647;DHT22;2336;47.822;7.564;2022-07-06T05:23:45;16.70;99.90
4647;DHT22;2336;47.822;7.564;2022-07-06T05:26:11;16.70;99.90
4647;DHT22;2336;47.822;7.564;2022-07-06T05:28:38;16.80;99.90
4647;DHT22;2336;47.822;7.564;2022-07-06T05:31:05;16.80;99.90
4647;DHT22;2336;47.822;7.564;2022-07-06T05:33:32;16.80;99.90
4647;DHT22;2336;47.822;7.564;2022-07-06T05:36:00;16.80;99.90
4647;DHT22;2336;47.822;7.564;2022-07-06T05:38:27;16.90;99.90
4647;DHT22;2336;47.822;7.564;2022-07-06T05:40:53;16.90;99.90
4647;DHT22;2336;47.822;7.564;2022-07-06T05:43:20;16.90;99.90
4647;DHT22;2336;47.822;7.564;2022-07-06T05:45:47;17.00;99.90
4647;DHT22;2336;47.822;7.564;2022-07-06T05:48:13;17.10;99.90
4647;DHT22;2336;47.822;7.564;2022-07-06T05:50:59;17.10;99.90
4647;DHT22;2336;47.822;7.564;2022-07-06T05:53:26;17.10;99.90
4647;DHT22;2336;47.822;7.564;2022-07-06T05:55:53;17.20;99.90
4647;DHT22;2336;47.822;7.564;2022-07-06T05:58:19;17.20;99.90
4647;DHT22;2336;47.822;7.564;2022-07-06T06:00:46;17.20;99.90
4647;DHT22;2336;47.822;7.564;2022-07-06T06:03:13;17.30;99.90
4647;DHT22;2336;47.822;7.564;2022-07-06T06:05:40;17.40;99.90
4647;DHT22;2336;47.822;7.564;2022-07-06T06:08:08;17.40;99.90
4647;DHT22;2336;47.822;7.564;2022-07-06T06:10:34;17.50;99.90
4647;DHT22;2336;47.822;7.564;2022-07-06T06:13:01;17.50;99.90
4647;DHT22;2336;47.822;7.564;2022-07-06T06:15:28;17.60;99.90
4647;DHT22;2336;47.822;7.564;2022-07-06T06:17:55;17.50;99.90
4647;DHT22;2336;47.822;7.564;2022-07-06T06:20:21;17.50;99.90
4647;DHT22;2336;47.822;7.564;2022-07-06T06:22:50;17.60;99.90
4647;DHT22;2336;47.822;7.564;2022-07-06T06:25:20;17.70;99.90
4647;DHT22;2336;47.822;7.564;2022-07-06T06:27:47;17.80;99.90
4647;DHT22;2336;47.822;7.564;2022-07-06T06:30:14;17.90;99.90
4647;DHT22;2336;47.822;7.564;2022-07-06T06:32:41;17.90;99.90
4647;DHT22;2336;47.822;7.564;2022-07-06T06:35:08;18.00;99.90
4647;DHT22;2336;47.822;7.564;2022-07-06T06:37:35;18.00;99.90
4647;DHT22;2336;47.822;7.564;2022-07-06T06:40:03;18.10;99.90
4647;DHT22;2336;47.822;7.564;2022-07-06T06:42:31;18.10;99.90
4647;DHT22;2336;47.822;7.564;2022-07-06T06:44:58;18.20;99.90
4647;DHT22;2336;47.822;7.564;2022-07-06T06:47:24;18.20;99.90
4647;DHT22;2336;47.822;7.564;2022-07-06T06:49:51;18.30;99.90
4647;DHT22;2336;47.822;7.564;2022-07-06T06:52:18;18.40;99.90
4647;DHT22;2336;47.822;7.564;2022-07-06T06:54:44;18.40;99.90
4647;DHT22;2336;47.822;7.564;2022-07-06T06:57:11;18.50;99.90
4647;DHT22;2336;47.822;7.564;2022-07-06T06:59:39;18.60;99.90
4647;DHT22;2336;47.822;7.564;2022-07-06T07:02:06;18.60;99.90
4647;DHT22;2336;47.822;7.564;2022-07-06T07:04:33;18.60;99.90
4647;DHT22;2336;47.822;7.564;2022-07-06T07:07:00;18.70;99.90
4647;DHT22;2336;47.822;7.564;2022-07-06T07:09:26;18.70;99.90
4647;DHT22;2336;47.822;7.564;2022-07-06T07:11:53;18.70;99.90
4647;DHT22;2336;47.822;7.564;2022-07-06T07:14:20;18.70;99.90
4647;DHT22;2336;47.822;7.564;2022-07-06T07:16:48;18.70;99.90
4647;DHT22;2336;47.822;7.564;2022-07-06T07:19:15;18.80;99.90
4647;DHT22;2336;47.822;7.564;2022-07-06T07:21:41;18.80;99.90
4647;DHT22;2336;47.822;7.564;2022-07-06T07:24:08;18.90;99.90
4647;DHT22;2336;47.822;7.564;2022-07-06T07:26:35;19.00;99.90
4647;DHT22;2336;47.822;7.564;2022-07-06T07:29:02;19.00;99.90
4647;DHT22;2336;47.822;7.564;2022-07-06T07:31:29;19.10;99.90
4647;DHT22;2336;47.822;7.564;2022-07-06T07:33:57;19.20;99.90
4647;DHT22;2336;47.822;7.564;2022-07-06T07:36:24;19.30;99.90
4647;DHT22;2336;47.822;7.564;2022-07-06T07:38:51;19.30;99.90
4647;DHT22;2336;47.822;7.564;2022-07-06T07:41:18;19.20;99.90
4647;DHT22;2336;47.822;7.564;2022-07-06T07:43:45;19.30;99.90
4647;DHT22;2336;47.822;7.564;2022-07-06T07:46:12;19.40;99.90
4647;DHT22;2336;47.822;7.564;2022-07-06T07:48:39;19.50;99.90
4647;DHT22;2336;47.822;7.564;2022-07-06T07:51:07;19.60;99.90
4647;DHT22;2336;47.822;7.564;2022-07-06T07:53:34;19.50;99.90
4647;DHT22;2336;47.822;7.564;2022-07-06T07:56:01;19.50;99.90
4647;DHT22;2336;47.822;7.564;2022-07-06T07:58:27;19.60;99.90
4647;DHT22;2336;47.822;7.564;2022-07-06T08:00:54;19.60;99.90
4647;DHT22;2336;47.822;7.564;2022-07-06T08:03:21;19.80;99.90
4647;DHT22;2336;47.822;7.564;2022-07-06T08:05:48;19.90;99.90
4647;DHT22;2336;47.822;7.564;2022-07-06T08:08:16;20.10;99.90
4647;DHT22;2336;47.822;7.564;2022-07-06T08:10:43;20.10;99.90
4647;DHT22;2336;47.822;7.564;2022-07-06T08:13:10;20.20;99.90
4647;DHT22;2336;47.822;7.564;2022-07-06T08:15:37;20.20;99.90
4647;DHT22;2336;47.822;7.564;2022-07-06T08:18:03;20.40;99.90
4647;DHT22;2336;47.822;7.564;2022-07-06T08:20:30;20.40;99.90
4647;DHT22;2336;47.822;7.564;2022-07-06T08:22:57;20.30;99.90
4647;DHT22;2336;47.822;7.564;2022-07-06T08:25:25;20.40;99.90
4647;DHT22;2336;47.822;7.564;2022-07-06T08:27:52;20.50;99.90
4647;DHT22;2336;47.822;7.564;2022-07-06T08:30:18;20.40;99.90
4647;DHT22;2336;47.822;7.564;2022-07-06T08:32:45;20.40;99.90
4647;DHT22;2336;47.822;7.564;2022-07-06T08:35:13;20.50;99.90
4647;DHT22;2336;47.822;7.564;2022-07-06T08:37:40;20.50;99.90
4647;DHT22;2336;47.822;7.564;2022-07-06T08:40:07;20.50;99.90
4647;DHT22;2336;47.822;7.564;2022-07-06T08:42:36;20.60;99.90
4647;DHT22;2336;47.822;7.564;2022-07-06T08:45:04;20.70;99.90
4647;DHT22;2336;47.822;7.564;2022-07-06T08:47:32;20.50;99.90
4647;DHT22;2336;47.822;7.564;2022-07-06T08:50:02;20.60;99.90
4647;DHT22;2336;47.822;7.564;2022-07-06T08:52:30;20.80;99.90
4647;DHT22;2336;47.822;7.564;2022-07-06T08:54:56;20.90;99.90
4647;DHT22;2336;47.822;7.564;2022-07-06T08:57:24;20.90;99.90
4647;DHT22;2336;47.822;7.564;2022-07-06T08:59:52;21.00;99.90
4647;DHT22;2336;47.822;7.564;2022-07-06T09:02:21;21.00;99.90
4647;DHT22;2336;47.822;7.564;2022-07-06T09:04:51;21.20;99.90
4647;DHT22;2336;47.822;7.564;2022-07-06T09:07:21;21.20;99.90
4647;DHT22;2336;47.822;7.564;2022-07-06T09:09:49;21.30;99.90
4647;DHT22;2336;47.822;7.564;2022-07-06T09:12:16;21.20;99.90
4647;DHT22;2336;47.822;7.564;2022-07-06T09:14:43;21.30;99.90
4647;DHT22;2336;47.822;7.564;2022-07-06T09:17:12;21.40;99.90
4647;DHT22;2336;47.822;7.564;2022-07-06T09:19:38;21.50;99.90
4647;DHT22;2336;47.822;7.564;2022-07-06T09:22:05;21.50;99.90
4647;DHT22;2336;47.822;7.564;2022-07-06T09:24:32;21.60;99.90
4647;DHT22;2336;47.822;7.564;2022-07-06T09:26:59;21.60;99.90
4647;DHT22;2336;47.822;7.564;2022-07-06T09:29:29;21.60;99.90
4647;DHT22;2336;47.822;7.564;2022-07-06T09:31:57;21.70;99.90
4647;DHT22;2336;47.822;7.564;2022-07-06T09:34:40;21.80;99.90
4647;DHT22;2336;47.822;7.564;2022-07-06T09:37:08;21.80;99.90
4647;DHT22;2336;47.822;7.564;2022-07-06T09:39:35;21.90;99.90
4647;DHT22;2336;47.822;7.564;2022-07-06T09:42:05;22.00;99.90
4647;DHT22;2336;47.822;7.564;2022-07-06T09:44:35;22.20;99.90
4647;DHT22;2336;47.822;7.564;2022-07-06T09:47:04;22.00;99.90
4647;DHT22;2336;47.822;7.564;2022-07-06T09:49:33;22.20;99.90
4647;DHT22;2336;47.822;7.564;2022-07-06T09:52:01;22.40;99.90
4647;DHT22;2336;47.822;7.564;2022-07-06T09:54:28;22.50;99.90
4647;DHT22;2336;47.822;7.564;2022-07-06T09:56:56;22.40;99.90
4647;DHT22;2336;47.822;7.564;2022-07-06T09:59:24;22.50;99.90
4647;DHT22;2336;47.822;7.564;2022-07-06T10:01:52;22.50;99.90
4647;DHT22;2336;47.822;7.564;2022-07-06T10:04:20;22.60;99.90
4647;DHT22;2336;47.822;7.564;2022-07-06T10:06:49;22.70;99.90
4647;DHT22;2336;47.822;7.564;2022-07-06T10:09:17;22.70;99.90
4647;DHT22;2336;47.822;7.564;2022-07-06T10:11:51;22.80;99.90
4647;DHT22;2336;47.822;7.564;2022-07-06T10:14:20;22.80;99.90
4647;DHT22;2336;47.822;7.564;2022-07-06T10:16:48;22.90;99.90
4647;DHT22;2336;47.822;7.564;2022-07-06T10:19:16;22.90;99.90
4647;DHT22;2336;47.822;7.564;2022-07-06T10:21:44;22.80;99.90
4647;DHT22;2336;47.822;7.564;2022-07-06T10:24:13;23.00;99.90
4647;DHT22;2336;47.822;7.564;2022-07-06T10:26:40;23.10;99.90
4647;DHT22;2336;47.822;7.564;2022-07-06T10:29:08;23.00;98.60
4647;DHT22;2336;47.822;7.564;2022-07-06T10:31:38;23.00;98.80
4647;DHT22;2336;47.822;7.564;2022-07-06T10:34:07;23.00;98.90
4647;DHT22;2336;47.822;7.564;2022-07-06T10:36:37;23.00;99.40
4647;DHT22;2336;47.822;7.564;2022-07-06T10:39:04;23.20;96.40
4647;DHT22;2336;47.822;7.564;2022-07-06T10:41:52;23.30;96.30
4647;DHT22;2336;47.822;7.564;2022-07-06T10:44:21;23.50;96.60
4647;DHT22;2336;47.822;7.564;2022-07-06T10:46:52;23.60;96.40
4647;DHT22;2336;47.822;7.564;2022-07-06T10:49:20;23.60;97.50
4647;DHT22;2336;47.822;7.564;2022-07-06T10:51:47;23.70;97.00
4647;DHT22;2336;47.822;7.564;2022-07-06T10:54:15;23.70;97.20
4647;DHT22;2336;47.822;7.564;2022-07-06T10:56:44;23.70;97.40
4647;DHT22;2336;47.822;7.564;2022-07-06T10:59:14;23.80;97.60
4647;DHT22;2336;47.822;7.564;2022-07-06T11:01:42;23.80;99.80
4647;DHT22;2336;47.822;7.564;2022-07-06T11:04:31;24.00;99.50
4647;DHT22;2336;47.822;7.564;2022-07-06T11:07:07;24.00;97.00
4647;DHT22;2336;47.822;7.564;2022-07-06T11:09:35;24.10;96.50
4647;DHT22;2336;47.822;7.564;2022-07-06T11:12:12;24.20;95.60
4647;DHT22;2336;47.822;7.564;2022-07-06T11:14:40;24.00;95.50
4647;DHT22;2336;47.822;7.564;2022-07-06T11:17:09;24.20;95.80
4647;DHT22;2336;47.822;7.564;2022-07-06T11:19:37;24.30;94.90
4647;DHT22;2336;47.822;7.564;2022-07-06T11:22:08;24.30;96.10
4647;DHT22;2336;47.822;7.564;2022-07-06T11:24:37;24.50;95.50
4647;DHT22;2336;47.822;7.564;2022-07-06T11:27:05;24.50;96.00
4647;DHT22;2336;47.822;7.564;2022-07-06T11:29:33;24.60;95.80
4647;DHT22;2336;47.822;7.564;2022-07-06T11:32:04;24.80;94.70
4647;DHT22;2336;47.822;7.564;2022-07-06T11:34:35;24.40;92.20
4647;DHT22;2336;47.822;7.564;2022-07-06T11:37:05;24.40;93.10
4647;DHT22;2336;47.822;7.564;2022-07-06T11:39:33;24.50;93.60
4647;DHT22;2336;47.822;7.564;2022-07-06T11:42:02;24.40;92.50
4647;DHT22;2336;47.822;7.564;2022-07-06T11:44:29;24.50;93.10
4647;DHT22;2336;47.822;7.564;2022-07-06T11:46:56;24.70;91.90
4647;DHT22;2336;47.822;7.564;2022-07-06T11:49:27;24.80;93.00
4647;DHT22;2336;47.822;7.564;2022-07-06T11:51:54;24.70;91.90
4647;DHT22;2336;47.822;7.564;2022-07-06T11:54:23;24.60;92.50
4647;DHT22;2336;47.822;7.564;2022-07-06T11:56:51;24.50;92.60
4647;DHT22;2336;47.822;7.564;2022-07-06T11:59:21;24.60;92.00
4647;DHT22;2336;47.822;7.564;2022-07-06T12:01:48;24.80;92.50
4647;DHT22;2336;47.822;7.564;2022-07-06T12:04:15;24.80;92.00
4647;DHT22;2336;47.822;7.564;2022-07-06T12:06:44;24.80;91.90
4647;DHT22;2336;47.822;7.564;2022-07-06T12:09:12;24.70;91.70
4647;DHT22;2336;47.822;7.564;2022-07-06T12:11:39;24.70;90.90
4647;DHT22;2336;47.822;7.564;2022-07-06T12:14:13;24.70;91.80
4647;DHT22;2336;47.822;7.564;2022-07-06T12:16:41;24.90;92.10
4647;DHT22;2336;47.822;7.564;2022-07-06T12:19:08;25.10;92.40
4647;DHT22;2336;47.822;7.564;2022-07-06T12:21:42;25.20;91.10
4647;DHT22;2336;47.822;7.564;2022-07-06T12:24:17;25.20;91.60
4647;DHT22;2336;47.822;7.564;2022-07-06T12:26:44;25.30;91.70
4647;DHT22;2336;47.822;7.564;2022-07-06T12:29:12;25.30;91.40
4647;DHT22;2336;47.822;7.564;2022-07-06T12:31:41;25.30;91.70
4647;DHT22;2336;47.822;7.564;2022-07-06T12:34:13;25.20;91.10
4647;DHT22;2336;47.822;7.564;2022-07-06T12:36:45;25.30;91.80
4647;DHT22;2336;47.822;7.564;2022-07-06T12:39:16;25.10;91.40
4647;DHT22;2336;47.822;7.564;2022-07-06T12:41:46;25.40;91.80
4647;DHT22;2336;47.822;7.564;2022-07-06T12:44:16;25.00;91.60
4647;DHT22;2336;47.822;7.564;2022-07-06T12:46:49;25.10;92.30
4647;DHT22;2336;47.822;7.564;2022-07-06T12:49:18;25.40;92.40
4647;DHT22;2336;47.822;7.564;2022-07-06T12:52:08;25.50;92.20
4647;DHT22;2336;47.822;7.564;2022-07-06T12:54:40;25.50;91.70
4647;DHT22;2336;47.822;7.564;2022-07-06T12:57:10;25.50;91.20
4647;DHT22;2336;47.822;7.564;2022-07-06T12:59:40;25.40;91.90
4647;DHT22;2336;47.822;7.564;2022-07-06T13:02:09;25.50;92.30
4647;DHT22;2336;47.822;7.564;2022-07-06T13:04:36;25.70;91.90
4647;DHT22;2336;47.822;7.564;2022-07-06T13:07:04;25.90;91.90
4647;DHT22;2336;47.822;7.564;2022-07-06T13:09:31;25.90;91.80
4647;DHT22;2336;47.822;7.564;2022-07-06T13:11:59;25.90;91.20
4647;DHT22;2336;47.822;7.564;2022-07-06T13:14:26;26.00;92.30
4647;DHT22;2336;47.822;7.564;2022-07-06T13:16:53;26.10;92.60
4647;DHT22;2336;47.822;7.564;2022-07-06T13:19:20;26.10;91.70
4647;DHT22;2336;47.822;7.564;2022-07-06T13:21:47;26.10;92.40
4647;DHT22;2336;47.822;7.564;2022-07-06T13:24:13;26.10;91.40
4647;DHT22;2336;47.822;7.564;2022-07-06T13:26:40;26.10;91.50
4647;DHT22;2336;47.822;7.564;2022-07-06T13:29:08;26.10;91.10
4647;DHT22;2336;47.822;7.564;2022-07-06T13:31:37;25.80;91.40
4647;DHT22;2336;47.822;7.564;2022-07-06T13:34:04;25.80;91.90
4647;DHT22;2336;47.822;7.564;2022-07-06T13:36:31;25.90;91.80
4647;DHT22;2336;47.822;7.564;2022-07-06T13:38:57;26.00;92.50
4647;DHT22;2336;47.822;7.564;2022-07-06T13:41:24;26.00;92.30
4647;DHT22;2336;47.822;7.564;2022-07-06T13:43:51;26.20;92.80
4647;DHT22;2336;47.822;7.564;2022-07-06T13:46:19;26.50;91.80
4647;DHT22;2336;47.822;7.564;2022-07-06T13:48:46;26.60;90.80
4647;DHT22;2336;47.822;7.564;2022-07-06T13:51:13;26.40;91.20
4647;DHT22;2336;47.822;7.564;2022-07-06T13:53:40;26.30;91.40
4647;DHT22;2336;47.822;7.564;2022-07-06T13:56:07;26.30;91.90
4647;DHT22;2336;47.822;7.564;2022-07-06T13:58:34;26.50;91.70
4647;DHT22;2336;47.822;7.564;2022-07-06T14:01:01;26.70;91.90
4647;DHT22;2336;47.822;7.564;2022-07-06T14:03:29;26.70;90.40
4647;DHT22;2336;47.822;7.564;2022-07-06T14:05:57;26.60;90.30
4647;DHT22;2336;47.822;7.564;2022-07-06T14:08:24;26.40;90.50
4647;DHT22;2336;47.822;7.564;2022-07-06T14:10:51;26.60;90.40
4647;DHT22;2336;47.822;7.564;2022-07-06T14:13:18;26.50;91.20
4647;DHT22;2336;47.822;7.564;2022-07-06T14:15:45;26.40;90.60
4647;DHT22;2336;47.822;7.564;2022-07-06T14:18:12;26.20;90.20
4647;DHT22;2336;47.822;7.564;2022-07-06T14:20:41;26.20;90.90
4647;DHT22;2336;47.822;7.564;2022-07-06T14:23:08;26.10;91.00
4647;DHT22;2336;47.822;7.564;2022-07-06T14:25:34;25.90;91.30
4647;DHT22;2336;47.822;7.564;2022-07-06T14:28:01;26.00;91.10
4647;DHT22;2336;47.822;7.564;2022-07-06T14:30:28;26.10;91.80
4647;DHT22;2336;47.822;7.564;2022-07-06T14:32:55;26.00;91.30
4647;DHT22;2336;47.822;7.564;2022-07-06T14:35:22;25.90;91.00
4647;DHT22;2336;47.822;7.564;2022-07-06T14:37:51;26.00;90.90
4647;DHT22;2336;47.822;7.564;2022-07-06T14:40:18;26.10;90.90
4647;DHT22;2336;47.822;7.564;2022-07-06T14:42:45;26.30;91.00
4647;DHT22;2336;47.822;7.564;2022-07-06T14:45:11;26.50;90.70
4647;DHT22;2336;47.822;7.564;2022-07-06T14:47:38;26.40;90.90
4647;DHT22;2336;47.822;7.564;2022-07-06T14:50:05;26.40;91.40
4647;DHT22;2336;47.822;7.564;2022-07-06T14:52:32;26.60;91.20
4647;DHT22;2336;47.822;7.564;2022-07-06T14:55:00;26.40;90.80
4647;DHT22;2336;47.822;7.564;2022-07-06T14:57:27;26.20;90.70
4647;DHT22;2336;47.822;7.564;2022-07-06T14:59:54;26.20;91.00
4647;DHT22;2336;47.822;7.564;2022-07-06T15:02:20;26.10;91.30
4647;DHT22;2336;47.822;7.564;2022-07-06T15:04:47;26.20;91.40
4647;DHT22;2336;47.822;7.564;2022-07-06T15:07:14;26.30;91.40
4647;DHT22;2336;47.822;7.564;2022-07-06T15:09:40;26.50;91.10
4647;DHT22;2336;47.822;7.564;2022-07-06T15:12:09;26.50;91.40
4647;DHT22;2336;47.822;7.564;2022-07-06T15:14:36;26.30;90.40
4647;DHT22;2336;47.822;7.564;2022-07-06T15:17:03;26.20;91.40
4647;DHT22;2336;47.822;7.564;2022-07-06T15:19:30;26.40;91.20
4647;DHT22;2336;47.822;7.564;2022-07-06T15:21:57;26.40;90.80
4647;DHT22;2336;47.822;7.564;2022-07-06T15:24:23;26.30;90.80
4647;DHT22;2336;47.822;7.564;2022-07-06T15:26:50;26.30;90.70
4647;DHT22;2336;47.822;7.564;2022-07-06T15:29:19;26.10;91.00
4647;DHT22;2336;47.822;7.564;2022-07-06T15:31:45;26.10;91.30
4647;DHT22;2336;47.822;7.564;2022-07-06T15:34:12;25.90;91.00
4647;DHT22;2336;47.822;7.564;2022-07-06T15:36:39;25.80;91.10
4647;DHT22;2336;47.822;7.564;2022-07-06T15:39:06;25.90;90.60
4647;DHT22;2336;47.822;7.564;2022-07-06T15:41:32;25.70;90.80
4647;DHT22;2336;47.822;7.564;2022-07-06T15:43:59;25.40;91.30
4647;DHT22;2336;47.822;7.564;2022-07-06T15:46:27;25.40;91.70
4647;DHT22;2336;47.822;7.564;2022-07-06T15:48:54;25.40;91.20
4647;DHT22;2336;47.822;7.564;2022-07-06T15:51:21;25.40;91.20
4647;DHT22;2336;47.822;7.564;2022-07-06T15:53:48;25.30;91.20
4647;DHT22;2336;47.822;7.564;2022-07-06T15:56:14;25.20;90.90
4647;DHT22;2336;47.822;7.564;2022-07-06T15:58:41;25.20;91.40
4647;DHT22;2336;47.822;7.564;2022-07-06T16:01:08;25.30;91.60
4647;DHT22;2336;47.822;7.564;2022-07-06T16:03:36;25.40;91.50
4647;DHT22;2336;47.822;7.564;2022-07-06T16:06:03;25.10;90.90